Time,TemperatureF,DewpointF,PressureIn,WindDirection,WindDirectionDegrees,WindSpeedMPH,WindSpeedGustMPH,Humidity,HourlyPrecipIn,Conditions,Clouds,dailyrainin,SoftwareType,DateUTC
2013-02-25 00:01:00,47.0,16.0,30.16,NNE,15,2.0,3.0,28,0.00,,,0.00,,2013-02-25 07:01:00,
2013-02-25 00:11:00,47.0,17.0,30.16,SSW,211,2.0,3.0,30,0.00,,,0.00,,2013-02-25 07:11:00,
2013-02-25 00:21:00,47.0,17.0,30.16,SSW,211,2.0,3.0,30,0.00,,,0.00,,2013-02-25 07:21:00,
2013-02-25 00:31:00,46.0,18.0,30.16,South,181,1.0,3.0,32,0.00,,,0.00,,2013-02-25 07:31:00,
2013-02-25 00:41:00,46.0,18.0,30.16,South,181,1.0,3.0,32,0.00,,,0.00,,2013-02-25 07:41:00,
2013-02-25 00:52:00,46.0,17.0,30.16,West,264,2.0,4.0,31,0.00,,,0.00,,2013-02-25 07:52:00,
2013-02-25 01:01:00,46.0,16.0,30.16,WNW,297,2.0,4.0,29,0.00,,,0.00,,2013-02-25 08:01:00,
2013-02-25 01:11:00,46.0,16.0,30.16,WNW,297,2.0,4.0,29,0.00,,,0.00,,2013-02-25 08:11:00,
2013-02-25 01:21:00,47.0,16.0,30.17,SW,219,1.0,2.0,29,0.00,,,0.00,,2013-02-25 08:21:00,
2013-02-25 01:31:00,46.0,16.0,30.17,SSE,168,0.0,0.0,30,0.00,,,0.00,,2013-02-25 08:31:00,
2013-02-25 01:41:00,46.0,16.0,30.17,SSE,168,0.0,0.0,30,0.00,,,0.00,,2013-02-25 08:41:00,
2013-02-25 01:52:00,46.0,18.0,30.17,WNW,297,2.0,3.0,32,0.00,,,0.00,,2013-02-25 08:52:00,
2013-02-25 02:01:00,45.0,18.0,30.18,WNW,297,0.0,0.0,33,0.00,,,0.00,,2013-02-25 09:01:00,
2013-02-25 02:12:00,45.0,18.0,30.18,WNW,297,0.0,0.0,33,0.00,,,0.00,,2013-02-25 09:12:00,
2013-02-25 02:21:00,44.0,18.0,30.18,SSE,160,2.0,2.0,35,0.00,,,0.00,,2013-02-25 09:21:00,
2013-02-25 02:31:00,44.0,19.0,30.18,SSE,161,0.0,0.0,36,0.00,,,0.00,,2013-02-25 09:31:00,
2013-02-25 02:41:00,44.0,19.0,30.18,SSE,161,0.0,0.0,36,0.00,,,0.00,,2013-02-25 09:41:00,
2013-02-25 02:52:00,43.0,19.0,30.18,SSE,160,0.0,0.0,38,0.00,,,0.00,,2013-02-25 09:52:00,
2013-02-25 03:01:00,42.0,19.0,30.19,South,171,2.0,4.0,39,0.00,,,0.00,,2013-02-25 10:01:00,
2013-02-25 03:11:00,43.0,19.0,30.19,SSE,162,0.0,1.0,38,0.00,,,0.00,,2013-02-25 10:11:00,
2013-02-25 03:21:00,43.0,19.0,30.19,SSE,162,0.0,1.0,38,0.00,,,0.00,,2013-02-25 10:21:00,
2013-02-25 03:31:00,43.0,19.0,30.19,SSE,160,0.0,0.0,37,0.00,,,0.00,,2013-02-25 10:31:00,
2013-02-25 03:41:00,43.0,19.0,30.19,SSE,160,0.0,0.0,37,0.00,,,0.00,,2013-02-25 10:41:00,
2013-02-25 03:52:00,42.0,19.0,30.20,South,187,2.0,3.0,39,0.00,,,0.00,,2013-02-25 10:52:00,
2013-02-25 04:01:00,41.0,19.0,30.20,South,186,1.0,1.0,40,0.00,,,0.00,,2013-02-25 11:01:00,
2013-02-25 04:11:00,41.0,19.0,30.20,South,186,1.0,1.0,40,0.00,,,0.00,,2013-02-25 11:11:00,
2013-02-25 04:21:00,41.0,20.0,30.19,SE,142,1.0,1.0,42,0.00,,,0.00,,2013-02-25 11:21:00,
2013-02-25 04:31:00,41.0,20.0,30.19,SSE,160,1.0,2.0,43,0.00,,,0.00,,2013-02-25 11:31:00,
2013-02-25 04:41:00,41.0,20.0,30.19,SSE,160,1.0,2.0,43,0.00,,,0.00,,2013-02-25 11:41:00,
2013-02-25 04:52:00,40.0,20.0,30.19,SSE,158,0.0,0.0,45,0.00,,,0.00,,2013-02-25 11:52:00,
2013-02-25 05:01:00,40.0,21.0,30.19,ENE,71,3.0,5.0,46,0.00,,,0.00,,2013-02-25 12:01:00,
2013-02-25 05:11:00,40.0,21.0,30.19,ENE,71,3.0,5.0,46,0.00,,,0.00,,2013-02-25 12:11:00,
2013-02-25 05:21:00,39.0,20.0,30.19,South,189,1.0,2.0,47,0.00,,,0.00,,2013-02-25 12:21:00,
2013-02-25 05:31:00,39.0,19.0,30.19,ENE,63,3.0,4.0,45,0.00,,,0.00,,2013-02-25 12:31:00,
2013-02-25 05:41:00,39.0,19.0,30.19,ENE,63,3.0,4.0,45,0.00,,,0.00,,2013-02-25 12:41:00,
2013-02-25 05:54:00,40.0,19.0,30.20,NE,50,0.0,0.0,43,0.00,,,0.00,,2013-02-25 12:54:00,
2013-02-25 06:11:00,40.0,20.0,30.20,SSE,152,1.0,2.0,44,0.00,,,0.00,,2013-02-25 13:11:00,
2013-02-25 06:21:00,39.0,19.0,30.21,SE,139,0.0,0.0,45,0.00,,,0.00,,2013-02-25 13:21:00,
2013-02-25 06:31:00,39.0,19.0,30.21,SE,139,0.0,1.0,45,0.00,,,0.00,,2013-02-25 13:31:00,
2013-02-25 06:41:00,39.0,19.0,30.21,SE,139,0.0,1.0,45,0.00,,,0.00,,2013-02-25 13:41:00,
2013-02-25 06:52:00,39.0,20.0,30.21,NE,45,2.0,4.0,47,0.00,,,0.00,,2013-02-25 13:52:00,
2013-02-25 07:02:00,38.0,20.0,30.22,South,179,2.0,3.0,48,0.00,,,0.00,,2013-02-25 14:02:00,
2013-02-25 07:12:00,38.0,20.0,30.22,South,179,2.0,3.0,48,0.00,,,0.00,,2013-02-25 14:12:00,
2013-02-25 07:21:00,38.0,20.0,30.22,East,81,0.0,0.0,48,0.00,,,0.00,,2013-02-25 14:21:00,
2013-02-25 07:31:00,38.0,21.0,30.22,NE,36,2.0,3.0,49,0.00,,,0.00,,2013-02-25 14:31:00,
2013-02-25 07:41:00,38.0,21.0,30.22,NE,36,2.0,3.0,49,0.00,,,0.00,,2013-02-25 14:41:00,
2013-02-25 07:52:00,40.0,17.0,30.22,North,355,5.0,7.0,39,0.00,,,0.00,,2013-02-25 14:52:00,
2013-02-25 08:02:00,43.0,17.0,30.22,North,6,6.0,7.0,34,0.00,,,0.00,,2013-02-25 15:02:00,
2013-02-25 08:11:00,43.0,17.0,30.22,North,6,6.0,7.0,34,0.00,,,0.00,,2013-02-25 15:11:00,
2013-02-25 08:21:00,48.0,16.0,30.22,NW,319,6.0,8.0,28,0.00,,,0.00,,2013-02-25 15:21:00,
2013-02-25 08:32:00,50.0,16.0,30.22,NNE,25,3.0,7.0,26,0.00,,,0.00,,2013-02-25 15:32:00,
2013-02-25 08:41:00,50.0,16.0,30.22,NNE,25,3.0,7.0,26,0.00,,,0.00,,2013-02-25 15:41:00,
2013-02-25 08:52:00,53.0,18.0,30.23,NNE,23,3.0,7.0,25,0.00,,,0.00,,2013-02-25 15:52:00,
2013-02-25 09:01:00,54.0,17.0,30.23,North,355,5.0,7.0,23,0.00,,,0.00,,2013-02-25 16:01:00,
2013-02-25 09:21:00,56.0,17.0,30.23,North,0,6.0,10.0,21,0.00,,,0.00,,2013-02-25 16:21:00,
2013-02-25 09:31:00,56.0,17.0,30.24,North,11,7.0,10.0,21,0.00,,,0.00,,2013-02-25 16:31:00,
2013-02-25 09:41:00,56.0,17.0,30.24,North,11,7.0,10.0,21,0.00,,,0.00,,2013-02-25 16:41:00,
2013-02-25 09:51:00,58.0,18.0,30.23,North,354,6.0,8.0,21,0.00,,,0.00,,2013-02-25 16:51:00,
2013-02-25 10:01:00,58.0,17.0,30.23,NNW,346,7.0,10.0,20,0.00,,,0.00,,2013-02-25 17:01:00,
2013-02-25 10:11:00,58.0,17.0,30.23,NNW,346,7.0,10.0,20,0.00,,,0.00,,2013-02-25 17:11:00,
2013-02-25 10:21:00,61.0,18.0,30.23,North,6,6.0,11.0,19,0.00,,,0.00,,2013-02-25 17:21:00,
2013-02-25 10:31:00,61.0,17.0,30.23,North,2,7.0,11.0,18,0.00,,,0.00,,2013-02-25 17:31:00,
2013-02-25 10:41:00,61.0,17.0,30.23,North,2,7.0,11.0,18,0.00,,,0.00,,2013-02-25 17:41:00,
2013-02-25 10:52:00,61.0,17.0,30.22,North,359,9.0,11.0,18,0.00,,,0.00,,2013-02-25 17:52:00,
2013-02-25 11:01:00,62.0,18.0,30.22,NNW,334,7.0,11.0,18,0.00,,,0.00,,2013-02-25 18:01:00,
2013-02-25 11:11:00,62.0,18.0,30.22,NNW,334,7.0,11.0,18,0.00,,,0.00,,2013-02-25 18:11:00,
2013-02-25 11:21:00,63.0,19.0,30.22,ENE,57,6.0,10.0,18,0.00,,,0.00,,2013-02-25 18:21:00,
2013-02-25 11:32:00,63.0,18.0,30.21,NE,45,7.0,10.0,17,0.00,,,0.00,,2013-02-25 18:32:00,
2013-02-25 11:41:00,63.0,18.0,30.21,NE,45,7.0,10.0,17,0.00,,,0.00,,2013-02-25 18:41:00,
2013-02-25 11:52:00,64.0,20.0,30.21,NE,39,6.0,8.0,18,0.00,,,0.00,,2013-02-25 18:52:00,
2013-02-25 12:01:00,64.0,18.0,30.21,NE,53,4.0,7.0,17,0.00,,,0.00,,2013-02-25 19:01:00,
2013-02-25 12:11:00,64.0,18.0,30.21,NE,53,4.0,7.0,17,0.00,,,0.00,,2013-02-25 19:11:00,
2013-02-25 12:21:00,65.0,18.0,30.20,NE,36,5.0,9.0,16,0.00,,,0.00,,2013-02-25 19:21:00,
2013-02-25 12:31:00,66.0,17.0,30.20,NNE,18,3.0,3.0,15,0.00,,,0.00,,2013-02-25 19:31:00,
2013-02-25 12:41:00,66.0,17.0,30.20,NNE,18,3.0,3.0,15,0.00,,,0.00,,2013-02-25 19:41:00,
2013-02-25 12:52:00,67.0,18.0,30.19,North,359,5.0,8.0,15,0.00,,,0.00,,2013-02-25 19:52:00,
2013-02-25 13:01:00,68.0,19.0,30.19,NNW,348,4.0,10.0,15,0.00,,,0.00,,2013-02-25 20:01:00,
2013-02-25 13:11:00,68.0,19.0,30.19,NNW,348,4.0,10.0,15,0.00,,,0.00,,2013-02-25 20:11:00,
2013-02-25 13:21:00,69.0,19.0,30.17,North,4,6.0,8.0,15,0.00,,,0.00,,2013-02-25 20:21:00,
2013-02-25 13:31:00,68.0,19.0,30.16,WNW,291,7.0,9.0,15,0.00,,,0.00,,2013-02-25 20:31:00,
2013-02-25 13:41:00,68.0,19.0,30.16,WNW,291,7.0,9.0,15,0.00,,,0.00,,2013-02-25 20:41:00,
2013-02-25 13:52:00,70.0,19.0,30.15,WNW,299,1.0,3.0,14,0.00,,,0.00,,2013-02-25 20:52:00,
2013-02-25 14:01:00,70.0,19.0,30.15,NNE,26,5.0,9.0,14,0.00,,,0.00,,2013-02-25 21:01:00,
2013-02-25 14:11:00,70.0,19.0,30.15,NNE,26,5.0,9.0,14,0.00,,,0.00,,2013-02-25 21:11:00,
2013-02-25 14:21:00,70.0,19.0,30.14,NW,326,7.0,8.0,14,0.00,,,0.00,,2013-02-25 21:21:00,
2013-02-25 14:31:00,70.0,19.0,30.14,WNW,294,1.0,1.0,14,0.00,,,0.00,,2013-02-25 21:31:00,
2013-02-25 14:41:00,70.0,19.0,30.14,WNW,294,1.0,1.0,14,0.00,,,0.00,,2013-02-25 21:41:00,
2013-02-25 14:52:00,70.0,17.0,30.13,NNE,15,2.0,6.0,13,0.00,,,0.00,,2013-02-25 21:52:00,
2013-02-25 15:01:00,69.0,16.0,30.12,NNW,330,5.0,6.0,13,0.00,,,0.00,,2013-02-25 22:01:00,
2013-02-25 15:11:00,69.0,16.0,30.12,NNW,330,5.0,6.0,13,0.00,,,0.00,,2013-02-25 22:11:00,
2013-02-25 15:21:00,69.0,16.0,30.12,NW,304,1.0,1.0,13,0.00,,,0.00,,2013-02-25 22:21:00,
2013-02-25 15:31:00,69.0,16.0,30.11,NW,321,6.0,9.0,13,0.00,,,0.00,,2013-02-25 22:31:00,
2013-02-25 15:41:00,69.0,16.0,30.11,NW,321,6.0,9.0,13,0.00,,,0.00,,2013-02-25 22:41:00,
2013-02-25 15:52:00,69.0,14.0,30.11,West,269,2.0,4.0,12,0.00,,,0.00,,2013-02-25 22:52:00,
2013-02-25 16:01:00,69.0,14.0,30.11,NW,324,6.0,10.0,12,0.00,,,0.00,,2013-02-25 23:01:00,
2013-02-25 16:11:00,69.0,14.0,30.11,NW,324,6.0,10.0,12,0.00,,,0.00,,2013-02-25 23:11:00,
2013-02-25 16:22:00,69.0,12.0,30.10,West,280,3.0,4.0,11,0.00,,,0.00,,2013-02-25 23:22:00,
2013-02-25 16:31:00,68.0,12.0,30.09,North,11,4.0,4.0,11,0.00,,,0.00,,2013-02-25 23:31:00,
2013-02-25 16:41:00,68.0,12.0,30.09,North,11,4.0,4.0,11,0.00,,,0.00,,2013-02-25 23:41:00,
2013-02-25 16:52:00,68.0,14.0,30.08,NW,322,6.0,8.0,12,0.00,,,0.00,,2013-02-25 23:52:00,
2013-02-25 17:01:00,68.0,14.0,30.08,North,8,4.0,5.0,12,0.00,,,0.00,,2013-02-26 00:01:00,
2013-02-25 17:11:00,68.0,14.0,30.08,North,8,4.0,5.0,12,0.00,,,0.00,,2013-02-26 00:11:00,
2013-02-25 17:21:00,67.0,13.0,30.07,North,359,2.0,3.0,12,0.00,,,0.00,,2013-02-26 00:21:00,
2013-02-25 17:32:00,67.0,13.0,30.06,North,10,4.0,10.0,12,0.00,,,0.00,,2013-02-26 00:32:00,
2013-02-25 17:41:00,67.0,13.0,30.06,North,10,4.0,10.0,12,0.00,,,0.00,,2013-02-26 00:41:00,
2013-02-25 17:52:00,66.0,14.0,30.06,NNE,31,2.0,2.0,13,0.00,,,0.00,,2013-02-26 00:52:00,
2013-02-25 18:01:00,66.0,14.0,30.05,NNE,18,2.0,3.0,13,0.00,,,0.00,,2013-02-26 01:01:00,
2013-02-25 18:11:00,66.0,14.0,30.05,NNE,18,2.0,3.0,13,0.00,,,0.00,,2013-02-26 01:11:00,
2013-02-25 18:21:00,65.0,15.0,30.04,NE,43,0.0,0.0,14,0.00,,,0.00,,2013-02-26 01:21:00,
2013-02-25 18:31:00,65.0,15.0,30.04,North,4,1.0,2.0,14,0.00,,,0.00,,2013-02-26 01:31:00,
2013-02-25 18:41:00,65.0,15.0,30.04,North,4,1.0,2.0,14,0.00,,,0.00,,2013-02-26 01:41:00,
2013-02-25 18:52:00,64.0,15.0,30.03,NE,38,1.0,1.0,15,0.00,,,0.00,,2013-02-26 01:52:00,
2013-02-25 19:01:00,63.0,16.0,30.03,NE,38,0.0,0.0,16,0.00,,,0.00,,2013-02-26 02:01:00,
2013-02-25 19:11:00,63.0,16.0,30.03,NE,38,0.0,0.0,16,0.00,,,0.00,,2013-02-26 02:11:00,
2013-02-25 19:21:00,61.0,17.0,30.02,NE,38,0.0,0.0,18,0.00,,,0.00,,2013-02-26 02:21:00,
2013-02-25 19:31:00,60.0,18.0,30.02,NE,34,0.0,1.0,19,0.00,,,0.00,,2013-02-26 02:31:00,
2013-02-25 19:41:00,60.0,18.0,30.02,NE,34,0.0,1.0,19,0.00,,,0.00,,2013-02-26 02:41:00,
2013-02-25 19:52:00,59.0,19.0,30.02,NW,320,0.0,0.0,21,0.00,,,0.00,,2013-02-26 02:52:00,
2013-02-25 20:01:00,58.0,20.0,30.02,NW,320,0.0,0.0,23,0.00,,,0.00,,2013-02-26 03:01:00,
2013-02-25 20:11:00,58.0,20.0,30.02,NW,320,0.0,0.0,23,0.00,,,0.00,,2013-02-26 03:11:00,
2013-02-25 20:21:00,56.0,21.0,30.02,NW,320,0.0,0.0,25,0.00,,,0.00,,2013-02-26 03:21:00,
2013-02-25 20:31:00,55.0,20.0,30.03,NW,320,0.0,0.0,25,0.00,,,0.00,,2013-02-26 03:31:00,
2013-02-25 20:41:00,55.0,20.0,30.03,NW,320,0.0,0.0,25,0.00,,,0.00,,2013-02-26 03:41:00,
2013-02-25 20:52:00,54.0,21.0,30.04,NW,317,0.0,0.0,27,0.00,,,0.00,,2013-02-26 03:52:00,
2013-02-25 21:01:00,54.0,22.0,30.04,NW,317,0.0,1.0,28,0.00,,,0.00,,2013-02-26 04:01:00,
2013-02-25 21:11:00,54.0,22.0,30.04,NW,317,0.0,1.0,28,0.00,,,0.00,,2013-02-26 04:11:00,
2013-02-25 21:21:00,53.0,22.0,30.05,NW,317,0.0,0.0,30,0.00,,,0.00,,2013-02-26 04:21:00,
2013-02-25 21:31:00,52.0,22.0,30.05,SSW,192,0.0,1.0,31,0.00,,,0.00,,2013-02-26 04:31:00,
2013-02-25 21:42:00,52.0,22.0,30.05,SSW,192,0.0,1.0,31,0.00,,,0.00,,2013-02-26 04:42:00,
2013-02-25 21:52:00,51.0,22.0,30.05,SSW,192,0.0,0.0,32,0.00,,,0.00,,2013-02-26 04:52:00,
2013-02-25 22:01:00,51.0,24.0,30.05,SSW,192,0.0,0.0,34,0.00,,,0.00,,2013-02-26 05:01:00,
2013-02-25 22:11:00,50.0,23.0,30.04,SSW,192,0.0,0.0,35,0.00,,,0.00,,2013-02-26 05:11:00,
2013-02-25 22:21:00,50.0,23.0,30.04,SSW,192,0.0,0.0,35,0.00,,,0.00,,2013-02-26 05:21:00,
2013-02-25 22:31:00,50.0,25.0,30.04,SSW,192,0.0,0.0,37,0.00,,,0.00,,2013-02-26 05:31:00,
2013-02-25 22:42:00,50.0,25.0,30.04,SSW,192,0.0,0.0,37,0.00,,,0.00,,2013-02-26 05:42:00,
2013-02-25 22:52:00,49.0,26.0,30.04,SSW,192,0.0,0.0,40,0.00,,,0.00,,2013-02-26 05:52:00,
2013-02-25 23:01:00,50.0,26.0,30.04,SSW,192,0.0,0.0,39,0.00,,,0.00,,2013-02-26 06:01:00,
2013-02-25 23:11:00,50.0,26.0,30.04,SSW,192,0.0,0.0,39,0.00,,,0.00,,2013-02-26 06:11:00,
2013-02-25 23:21:00,49.0,26.0,30.04,SSW,192,0.0,1.0,40,0.00,,,0.00,,2013-02-26 06:21:00,
2013-02-25 23:31:00,48.0,25.0,30.04,SSW,192,0.0,0.0,40,0.00,,,0.00,,2013-02-26 06:31:00,
2013-02-25 23:41:00,48.0,25.0,30.04,SSW,192,0.0,0.0,40,0.00,,,0.00,,2013-02-26 06:41:00,
2013-02-25 23:52:00,48.0,25.0,30.05,ENE,74,1.0,2.0,41,0.00,,,0.00,,2013-02-26 06:52:00,